Time;durP1;ratioP1;P1;durP2;ratioP2;P2;SDS_P1;SDS_P2;PMS_P1;PMS_P2;Temp;Humidity;BMP_temperature;BMP_pressure;BME280_temperature;BME280_humidity;BME280_pressure;Samples;Min_cycle;Max_cycle;Signal;HPM_P1;HPM_P2
2021/05/18 05:53:58;;;;;;;12.18;9.13;;;;;;;16.91;72.38;99023.98;1687275;82;25852;-62
2021/05/18 05:56:29;;;;;;;10.70;9.58;;;;;;;17.42;71.91;99023.61;1715719;81;25650;-61
2021/05/18 05:58:59;;;;;;;13.55;9.83;;;;;;;17.89;71.73;99032.73;1713951;81;25624;-61
2021/05/18 06:01:24;;;;;;;;;;;;;;;18.26;70.59;99033.52;1716045;81;27330;-61
2021/05/18 06:03:51;;;;;;;10.10;8.35;;;;;;;18.62;69.67;99033.48;1713077;81;25813;-60
2021/05/18 06:06:18;;;;;;;10.32;7.87;;;;;;;18.81;68.62;99022.69;1732190;80;25487;-61
2021/05/18 06:08:46;;;;;;;12.20;8.60;;;;;;;18.85;66.96;99030.35;1739409;80;25488;-60
2021/05/18 06:11:25;;;;;;;10.25;7.90;;;;;;;18.83;66.66;99033.48;1734601;80;25869;-60
2021/05/18 06:46:35;;;;;;;9.63;7.40;;;;;;;18.58;63.51;99047.78;1630472;86;25937;-61
2021/05/18 06:48:58;;;;;;;11.28;7.78;;;;;;;18.59;63.08;99056.98;1621977;85;25471;-62
2021/05/18 06:51:25;;;;;;;12.80;7.50;;;;;;;18.63;62.92;99055.01;1623093;86;25826;-62
2021/05/18 06:53:52;;;;;;;8.63;6.92;;;;;;;18.59;62.58;99050.70;1615593;86;27358;-60
2021/05/18 06:56:18;;;;;;;9.65;7.58;;;;;;;18.58;62.72;99047.78;1618468;86;25469;-61
2021/05/18 07:01:14;;;;;;;9.65;7.15;;;;;;;18.59;62.73;99054.80;1630948;85;32152;-61
2021/05/18 07:03:50;;;;;;;10.32;7.90;;;;;;;18.63;62.55;99059.11;1618262;86;25724;-61
2021/05/18 07:06:41;;;;;;;15.40;7.75;;;;;;;18.58;62.05;99058.14;1634743;86;27454;-61
2021/05/18 07:08:58;;;;;;;8.73;7.45;;;;;;;18.53;62.09;99053.66;1634893;85;25848;-61
2021/05/18 07:11:26;;;;;;;7.97;7.12;;;;;;;18.50;62.16;99058.55;1623638;85;26000;-61
2021/05/18 07:13:53;;;;;;;9.18;6.78;;;;;;;18.53;62.32;99065.98;1634276;86;25812;-61
2021/05/18 07:16:20;;;;;;;9.78;7.20;;;;;;;18.58;62.40;99074.58;1635836;86;25843;-61
2021/05/18 07:18:47;;;;;;;7.00;6.30;;;;;;;18.66;62.70;99065.75;1636232;86;27349;-62
2021/05/18 07:21:13;;;;;;;7.58;6.70;;;;;;;18.78;62.73;99068.09;1634927;85;25749;-61
2021/05/18 07:23:40;;;;;;;10.70;7.78;;;;;;;18.92;62.85;99065.17;1636618;86;25833;-62
2021/05/18 07:26:07;;;;;;;8.83;7.95;;;;;;;19.10;62.60;99066.47;1626906;86;25930;-61
2021/05/18 07:28:35;;;;;;;9.43;7.22;;;;;;;19.30;62.40;99066.80;1633344;85;25840;-72
2021/05/18 07:31:05;;;;;;;10.03;7.95;;;;;;;19.45;62.04;99067.53;1620909;86;28046;-61
2021/05/18 07:33:33;;;;;;;10.00;7.42;;;;;;;19.51;61.18;99061.80;1634194;85;25707;-62
2021/05/18 07:36:08;;;;;;;7.97;6.83;;;;;;;19.63;61.09;99063.31;1601246;87;25912;-61
2021/05/18 07:38:30;;;;;;;10.55;8.05;;;;;;;19.74;61.34;99067.59;1615621;86;25938;-62
2021/05/18 07:40:57;;;;;;;9.40;7.15;;;;;;;19.86;60.85;99069.09;1619072;86;25830;-61
2021/05/18 07:43:24;;;;;;;11.00;6.87;;;;;;;20.02;60.42;99064.47;1639826;85;27413;-58
2021/05/18 07:46:01;;;;;;;12.25;8.03;;;;;;;20.12;60.29;99066.36;1638126;84;25844;-58
2021/05/18 07:48:41;;;;;;;9.15;7.33;;;;;;;20.11;59.31;99069.53;1639389;86;25878;-61
2021/05/18 07:51:29;;;;;;;11.80;7.65;;;;;;;20.03;59.86;99070.76;1636803;85;25849;-62
2021/05/18 07:59:20;;;;;;;10.18;7.75;;;;;;;19.62;60.78;99081.74;1632236;86;25815;-61
2021/05/18 08:07:16;;;;;;;13.45;9.53;;;;;;;19.53;61.22;99082.75;1608342;86;25509;-76
2021/05/18 08:09:47;;;;;;;9.18;8.28;;;;;;;19.63;61.12;99081.14;1623563;86;27498;-75
2021/05/18 08:12:14;;;;;;;8.88;7.85;;;;;;;19.65;60.67;99086.44;1625167;86;25785;-62
2021/05/18 08:14:46;;;;;;;9.50;8.23;;;;;;;19.60;60.71;99082.14;1623068;86;26619;-62
2021/05/18 08:17:17;;;;;;;13.62;8.15;;;;;;;19.59;60.75;99086.65;1623304;86;26439;-76
2021/05/18 08:47:54;;;;;;;8.53;6.35;;;;;;;22.20;58.44;99086.67;1623062;85;25888;-70
2021/05/18 10:36:18;;;;;;;8.73;6.35;;;;;;;25.73;44.83;99096.20;1585912;88;25900;-63
2021/05/18 10:38:43;;;;;;;10.13;5.90;;;;;;;25.29;45.11;99102.04;1580460;88;25977;-63
2021/05/18 10:41:24;;;;;;;9.05;5.53;;;;;;;25.07;45.29;99101.83;1602789;87;27431;-62
2021/05/18 10:43:59;;;;;;;7.78;5.35;;;;;;;24.57;45.64;99091.48;1590270;87;25833;-62
2021/05/18 10:46:28;;;;;;;8.83;4.87;;;;;;;24.38;45.81;99096.64;1589801;88;25988;-62
2021/05/18 10:48:59;;;;;;;7.75;5.80;;;;;;;24.31;47.50;99103.69;1594340;88;25482;-62
2021/05/18 10:51:54;;;;;;;8.38;6.45;;;;;;;24.46;47.01;99096.45;1593620;88;25907;-58
2021/05/18 10:54:30;;;;;;;10.38;6.25;;;;;;;24.67;47.72;99089.05;1599760;87;27503;-56
2021/05/18 10:57:04;;;;;;;8.40;5.83;;;;;;;24.91;46.73;99102.63;1594251;88;25947;-59
2021/05/18 10:59:55;;;;;;;9.10;6.42;;;;;;;24.78;45.58;99099.81;1608518;87;25334;-59
2021/05/18 11:02:38;;;;;;;7.17;6.15;;;;;;;24.33;45.46;99108.20;1626036;85;25921;-58
2021/05/18 11:05:14;;;;;;;7.37;6.62;;;;;;;23.87;45.78;99112.79;1634061;85;25872;-57
2021/05/18 11:07:44;;;;;;;7.97;6.37;;;;;;;23.45;45.96;99109.72;1601286;87;27355;-57
2021/05/18 11:10:18;;;;;;;13.90;7.35;;;;;;;22.86;46.44;99103.70;1648671;85;25863;-58
2021/05/18 11:12:48;;;;;;;13.72;6.92;;;;;;;22.42;47.03;99115.88;1631019;85;26643;-58
2021/05/18 11:15:23;;;;;;;11.97;6.60;;;;;;;22.00;47.63;99117.46;1637681;85;27036;-58
2021/05/18 11:17:55;;;;;;;10.25;8.60;;;;;;;21.57;48.35;99111.94;1630918;86;25670;-58
2021/05/18 11:25:59;;;;;;;9.98;6.67;;;;;;;20.65;50.74;99119.34;1601043;86;25783;-60
2021/05/18 11:28:29;;;;;;;8.78;7.37;;;;;;;20.53;51.54;99123.91;1589440;88;25773;-61
2021/05/18 11:31:00;;;;;;;11.57;8.40;;;;;;;20.44;51.79;99121.62;1605213;86;25871;-61
2021/05/18 11:33:47;;;;;;;8.30;6.50;;;;;;;20.34;51.97;99117.00;1612060;86;27440;-61
2021/05/18 11:36:21;;;;;;;11.12;7.60;;;;;;;20.24;52.65;99119.23;1601664;86;25739;-61
2021/05/18 11:38:57;;;;;;;7.47;6.50;;;;;;;20.28;53.13;99113.14;1612426;87;25549;-61
2021/05/18 11:41:26;;;;;;;12.05;7.42;;;;;;;20.31;53.27;99117.23;1568923;89;25922;-61
2021/05/18 11:43:56;;;;;;;8.28;7.12;;;;;;;20.42;53.67;99120.48;1598828;87;25579;-61
2021/05/18 11:46:25;;;;;;;14.63;8.25;;;;;;;20.54;53.70;99119.99;1576083;89;27359;-61
2021/05/18 11:49:07;;;;;;;10.10;8.28;;;;;;;20.67;53.12;99118.92;1605063;87;25945;-61
2021/05/18 11:51:49;;;;;;;8.43;7.17;;;;;;;21.03;53.54;99118.00;1590780;87;25953;-62
2021/05/18 11:54:20;;;;;;;8.00;6.65;;;;;;;21.67;53.92;99117.70;1587635;88;25999;-62
2021/05/18 11:56:48;;;;;;;9.95;7.45;;;;;;;22.35;53.37;99106.52;1600770;87;25928;-62
2021/05/18 11:59:21;;;;;;;8.93;7.53;;;;;;;22.82;52.54;99106.36;1611048;86;27527;-62
2021/05/18 12:01:58;;;;;;;9.13;7.70;;;;;;;23.23;51.70;99110.14;1603319;87;25900;-62
2021/05/18 12:04:28;;;;;;;10.75;7.28;;;;;;;23.49;50.13;99105.66;1635232;86;26291;-63
2021/05/18 12:07:05;;;;;;;8.88;6.60;;;;;;;23.54;48.83;99111.30;1634358;86;25822;-63
2021/05/18 12:09:38;;;;;;;9.93;7.67;;;;;;;23.37;48.64;99110.45;1631716;86;25654;-63
2021/05/18 12:12:14;;;;;;;10.70;6.92;;;;;;;23.17;48.30;99117.95;1632438;85;27392;-63
2021/05/18 12:14:44;;;;;;;8.93;7.05;;;;;;;22.97;48.21;99128.34;1618207;86;25860;-63
2021/05/18 12:17:13;;;;;;;11.28;7.42;;;;;;;22.80;48.60;99126.65;1633671;85;25921;-62
2021/05/18 12:19:41;;;;;;;;;;;;;;;22.83;48.64;99123.06;1642582;85;25541;-62
2021/05/18 12:22:07;;;;;;;9.43;7.83;;;;;;;23.02;48.86;99120.16;1634490;85;25814;-58
2021/05/18 12:24:40;;;;;;;9.78;7.90;;;;;;;23.01;48.22;99126.28;1631563;85;27346;-58
2021/05/18 12:27:07;;;;;;;9.08;8.03;;;;;;;22.88;48.30;99129.47;1639925;84;25836;-58
2021/05/18 12:29:52;;;;;;;10.45;8.20;;;;;;;22.86;48.52;99128.51;1632894;84;25947;-58
2021/05/18 12:32:28;;;;;;;9.58;8.60;;;;;;;22.83;48.37;99134.89;1600376;87;25833;-58
2021/05/18 12:34:59;;;;;;;8.85;7.95;;;;;;;22.69;48.17;99126.84;1635292;85;25449;-59
2021/05/18 12:37:33;;;;;;;8.73;7.92;;;;;;;22.93;49.27;99132.54;1595246;86;27924;-59
2021/05/18 12:40:09;;;;;;;9.58;8.65;;;;;;;23.34;48.65;99140.27;1602519;87;25689;-58
2021/05/18 12:42:36;;;;;;;9.20;8.35;;;;;;;23.57;47.79;99137.28;1628227;86;25801;-58
2021/05/18 12:45:08;;;;;;;9.48;8.65;;;;;;;23.50;47.44;99126.55;1623303;86;25847;-59
2021/05/18 12:47:39;;;;;;;8.93;8.03;;;;;;;23.30;47.15;99130.68;1600037;87;25917;-58
2021/05/18 12:50:11;;;;;;;13.32;8.23;;;;;;;23.13;47.66;99138.09;1607756;87;28443;-60
2021/05/18 12:52:42;;;;;;;13.43;9.38;;;;;;;23.09;47.86;99140.76;1611422;87;25857;-59
2021/05/18 12:55:29;;;;;;;9.05;8.15;;;;;;;22.93;47.62;99144.14;1597820;86;25741;-59
2021/05/18 12:58:05;;;;;;;9.90;8.73;;;;;;;22.73;47.78;99149.59;1615670;86;25786;-66
2021/05/18 13:00:36;;;;;;;9.98;8.98;;;;;;;22.46;47.69;99159.28;1621010;86;25804;-65
2021/05/18 13:03:17;;;;;;;11.28;9.38;;;;;;;22.12;47.94;99151.91;1618873;87;27344;-66
2021/05/18 13:05:47;;;;;;;9.85;9.05;;;;;;;21.82;48.32;99161.73;1604420;86;25739;-66
2021/05/18 13:08:35;;;;;;;12.43;9.95;;;;;;;21.53;48.73;99155.80;1622871;87;25891;-66
2021/05/18 13:13:56;;;;;;;10.70;9.33;;;;;;;20.90;49.55;99160.32;1600509;87;26315;-66
2021/05/18 13:16:34;;;;;;;9.83;8.95;;;;;;;20.59;50.16;99159.39;1603742;87;27287;-66
2021/05/18 13:19:15;;;;;;;14.77;9.03;;;;;;;20.36;50.60;99160.53;1578396;87;25434;-65
2021/05/18 13:21:57;;;;;;;11.93;9.33;;;;;;;20.15;51.18;99160.27;1616370;86;25484;-66
2021/05/18 13:24:27;;;;;;;10.38;9.00;;;;;;;20.00;51.64;99166.23;1607715;87;25863;-67
2021/05/18 13:26:50;;;;;;;14.28;8.50;;;;;;;19.88;52.24;99160.61;1626922;86;32594;-64
2021/05/18 13:29:23;;;;;;;11.30;8.35;;;;;;;19.85;52.78;99165.52;1631571;85;27340;-65
2021/05/18 13:31:53;;;;;;;9.88;8.90;;;;;;;19.76;53.13;99150.87;1631053;86;25655;-64
2021/05/18 13:34:21;;;;;;;8.90;8.00;;;;;;;19.65;53.16;99155.01;1641562;85;25766;-65
2021/05/18 13:36:48;;;;;;;12.80;7.75;;;;;;;19.56;53.34;99158.75;1648568;84;25980;-63
2021/05/18 13:39:19;;;;;;;8.48;7.25;;;;;;;19.43;53.60;99158.41;1612496;86;25858;-62
2021/05/18 13:41:51;;;;;;;9.60;7.55;;;;;;;19.32;53.92;99160.39;1637262;85;27453;-66
2021/05/18 13:44:15;;;;;;;7.65;7.05;;;;;;;19.25;54.18;99149.45;1627163;86;25967;-64
2021/05/18 13:46:47;;;;;;;9.85;6.80;;;;;;;19.28;54.92;99156.89;1636057;85;25841;-65
2021/05/18 13:49:15;;;;;;;12.45;8.28;;;;;;;19.56;55.62;99159.55;1642130;85;25924;-64
2021/05/18 13:51:44;;;;;;;10.05;6.90;;;;;;;19.73;54.72;99162.03;1628660;85;25491;-64
2021/05/18 13:54:11;;;;;;;12.00;8.05;;;;;;;19.91;55.22;99172.94;1638685;84;27917;-65
2021/05/18 13:56:38;;;;;;;8.20;7.40;;;;;;;20.00;54.03;99176.62;1641356;86;26685;-65
2021/05/18 13:59:04;;;;;;;11.78;7.17;;;;;;;19.89;54.00;99167.67;1644259;85;25920;-66
2021/05/18 14:01:31;;;;;;;8.75;7.25;;;;;;;19.85;54.06;99176.50;1641905;85;26768;-67
2021/05/18 14:03:57;;;;;;;11.78;7.25;;;;;;;19.81;54.05;99177.11;1640585;85;25487;-64
2021/05/18 14:06:23;;;;;;;10.50;7.30;;;;;;;19.73;53.97;99188.66;1635774;85;27343;-65
2021/05/18 14:08:50;;;;;;;11.93;7.42;;;;;;;19.71;54.20;99184.17;1624911;86;25955;-64
2021/05/18 14:11:19;;;;;;;8.40;6.87;;;;;;;19.71;54.06;99163.00;1642884;85;25813;-67
2021/05/18 14:13:50;;;;;;;;;;;;;;;19.65;54.22;99186.55;1647678;85;25778;-65
2021/05/18 14:16:22;;;;;;;6.95;6.25;;;;;;;19.66;54.09;99181.23;1631603;85;25891;-66
2021/05/18 14:18:54;;;;;;;8.25;7.08;;;;;;;19.61;54.30;99185.77;1614737;86;27530;-65
2021/05/18 14:21:22;;;;;;;10.03;6.95;;;;;;;19.56;54.03;99188.34;1632454;85;25904;-66
2021/05/18 14:26:25;;;;;;;9.68;7.00;;;;;;;19.27;54.36;99194.46;1637538;85;26329;-66
2021/05/18 14:28:52;;;;;;;8.45;6.95;;;;;;;19.17;54.91;99191.15;1654619;84;25769;-66
2021/05/18 14:31:18;;;;;;;11.97;6.97;;;;;;;19.14;55.13;99189.22;1634611;86;27379;-67
2021/05/18 14:33:45;;;;;;;10.23;6.42;;;;;;;19.08;55.45;99187.45;1632449;85;26150;-65
2021/05/18 14:36:14;;;;;;;10.10;7.80;;;;;;;19.09;55.68;99194.50;1641188;85;25826;-65
2021/05/18 14:38:44;;;;;;;6.92;6.10;;;;;;;18.98;55.37;99194.49;1640225;86;25804;-65
2021/05/18 14:54:45;;;;;;;7.35;6.15;;;;;;;18.08;56.92;99186.73;1617946;86;25747;-72
2021/05/18 14:57:02;;;;;;;;;;;;;;;17.93;57.21;99192.77;1624494;86;27374;-74
2021/05/18 14:59:30;;;;;;;7.30;6.20;;;;;;;17.80;57.81;99196.38;1625202;86;25748;-67
2021/05/18 15:01:59;;;;;;;12.58;7.10;;;;;;;17.70;57.71;99201.22;1609511;86;26098;-66
2021/05/18 15:04:26;;;;;;;8.93;6.03;;;;;;;17.62;58.03;99199.61;1623508;86;25967;-67
2021/05/18 15:06:52;;;;;;;6.17;5.58;;;;;;;17.51;58.30;99200.34;1620088;86;25931;-67
2021/05/18 15:09:19;;;;;;;8.78;5.75;;;;;;;17.44;58.50;99208.50;1641812;84;27339;-64
2021/05/18 15:11:45;;;;;;;7.20;5.17;;;;;;;17.40;58.74;99200.87;1626806;86;26240;-66
2021/05/18 15:14:12;;;;;;;9.10;5.47;;;;;;;17.34;58.91;99201.80;1633469;85;26311;-66
2021/05/18 15:46:39;;;;;;;8.00;5.15;;;;;;;17.03;60.41;99217.41;1642983;85;26189;-59
2021/05/18 15:49:05;;;;;;;8.28;5.85;;;;;;;17.05;60.58;99220.54;1638881;85;26469;-59
2021/05/18 15:51:32;;;;;;;8.80;5.15;;;;;;;17.04;60.75;99212.12;1631391;85;25912;-59
2021/05/18 15:53:59;;;;;;;6.25;5.65;;;;;;;17.05;60.85;99220.54;1607812;85;27379;-58
2021/05/18 15:56:25;;;;;;;7.53;5.15;;;;;;;17.03;60.74;99219.55;1638549;86;26469;-59
2021/05/18 15:58:52;;;;;;;7.10;5.42;;;;;;;17.02;60.80;99219.92;1640366;86;26131;-59
2021/05/18 16:01:19;;;;;;;6.05;5.37;;;;;;;16.96;60.69;99227.11;1635936;86;26249;-59
2021/05/18 16:03:46;;;;;;;7.35;5.15;;;;;;;16.94;60.87;99236.83;1625739;85;25755;-59
2021/05/18 16:06:12;;;;;;;5.67;4.47;;;;;;;16.89;60.99;99228.42;1631859;85;27350;-60
2021/05/18 16:11:09;;;;;;;9.23;4.75;;;;;;;16.83;61.25;99233.20;1633138;86;25990;-59
2021/05/18 16:13:39;;;;;;;5.67;4.97;;;;;;;16.76;61.14;99236.66;1625916;85;25963;-60
2021/05/18 16:16:10;;;;;;;8.83;5.87;;;;;;;16.71;61.18;99236.41;1633651;86;25972;-60
2021/05/18 16:18:38;;;;;;;7.83;5.62;;;;;;;16.71;61.34;99237.00;1622967;85;27332;-59
2021/05/18 16:21:07;;;;;;;6.20;5.60;;;;;;;16.68;61.37;99249.44;1640206;86;26665;-61
2021/05/18 16:23:35;;;;;;;14.25;7.70;;;;;;;16.60;61.45;99251.33;1616879;86;25921;-64
2021/05/18 16:26:03;;;;;;;7.92;6.53;;;;;;;16.51;61.38;99251.42;1627619;85;26501;-61
2021/05/18 16:28:30;;;;;;;6.65;5.60;;;;;;;16.44;61.63;99256.22;1636740;86;25890;-61
2021/05/18 16:30:57;;;;;;;7.67;5.20;;;;;;;16.42;62.00;99266.14;1622891;86;27335;-59
2021/05/18 16:33:25;;;;;;;7.22;5.08;;;;;;;16.37;62.07;99269.20;1635730;85;25776;-62
2021/05/18 16:35:52;;;;;;;5.65;4.65;;;;;;;16.33;62.29;99275.21;1632165;85;26015;-60
2021/05/18 16:38:19;;;;;;;6.25;5.65;;;;;;;16.32;62.39;99274.99;1609834;85;25979;-63
2021/05/18 16:40:52;;;;;;;6.40;5.17;;;;;;;16.27;62.58;99279.42;1631777;86;25967;-63
2021/05/18 16:43:22;;;;;;;8.08;6.53;;;;;;;16.21;62.73;99280.92;1634538;85;27968;-63
2021/05/18 16:45:50;;;;;;;7.78;6.60;;;;;;;16.15;62.85;99281.03;1632655;85;25890;-62
2021/05/18 16:48:18;;;;;;;10.10;7.12;;;;;;;16.10;62.91;99275.91;1625597;85;25854;-62
2021/05/18 16:50:46;;;;;;;7.25;6.08;;;;;;;16.06;63.30;99279.95;1619898;85;26218;-61
2021/05/18 16:53:15;;;;;;;7.90;6.90;;;;;;;15.95;63.60;99275.70;1612625;87;25987;-62
2021/05/18 16:55:42;;;;;;;8.35;7.55;;;;;;;15.85;63.92;99279.08;1626176;85;27093;-62
2021/05/18 16:58:08;;;;;;;10.53;9.40;;;;;;;15.77;64.17;99274.70;1639949;85;25525;-63
2021/05/18 17:00:37;;;;;;;9.75;8.60;;;;;;;15.65;64.80;99276.45;1632847;85;26327;-62
2021/05/18 17:03:04;;;;;;;9.95;7.85;;;;;;;15.53;65.76;99279.95;1630478;85;25961;-61
2021/05/18 17:05:31;;;;;;;10.75;9.10;;;;;;;15.42;65.65;99285.25;1629950;85;25690;-61
2021/05/18 17:08:06;;;;;;;10.50;9.48;;;;;;;15.38;66.29;99281.70;1626500;86;27483;-61
2021/05/18 17:10:38;;;;;;;15.13;12.75;;;;;;;15.33;66.54;99290.18;1628057;86;27169;-61
2021/05/18 17:13:07;;;;;;;23.62;19.20;;;;;;;15.27;67.09;99286.95;1616337;86;25740;-61
2021/05/18 17:15:35;;;;;;;13.32;11.93;;;;;;;15.21;67.23;99290.58;1635488;86;25993;-60
2021/05/18 17:18:02;;;;;;;10.63;9.50;;;;;;;15.16;67.65;99283.30;1635300;86;25853;-61
2021/05/18 17:20:32;;;;;;;11.68;10.50;;;;;;;15.08;67.86;99295.99;1633615;85;27930;-62
2021/05/18 17:22:59;;;;;;;11.48;9.40;;;;;;;15.03;67.91;99291.63;1635107;86;25907;-61
2021/05/18 17:25:26;;;;;;;10.58;9.05;;;;;;;14.97;68.25;99286.29;1641144;85;25814;-62
2021/05/18 17:27:54;;;;;;;11.63;10.10;;;;;;;14.93;68.57;99291.67;1625968;85;25855;-59
2021/05/18 17:30:25;;;;;;;10.70;9.25;;;;;;;14.88;68.73;99291.97;1632975;85;26044;-61
2021/05/18 17:32:54;;;;;;;11.33;9.63;;;;;;;14.83;68.78;99291.47;1628734;84;27341;-62
2021/05/18 17:35:23;;;;;;;9.78;8.78;;;;;;;14.77;68.93;99285.55;1631676;86;25843;-62
2021/05/18 17:37:51;;;;;;;10.72;9.68;;;;;;;14.74;69.54;99287.62;1631706;85;25899;-62
2021/05/18 17:40:21;;;;;;;11.10;9.20;;;;;;;14.67;69.54;99286.13;1625111;85;26460;-61
2021/05/18 17:42:48;;;;;;;11.18;9.60;;;;;;;14.61;69.74;99288.92;1630724;85;25808;-61
2021/05/18 17:45:16;;;;;;;12.05;10.48;;;;;;;14.55;69.65;99293.27;1633383;85;29625;-62
2021/05/18 17:47:44;;;;;;;13.48;11.25;;;;;;;14.52;70.03;99299.45;1644224;85;25739;-61
2021/05/18 17:50:15;;;;;;;13.40;11.35;;;;;;;14.48;70.04;99295.86;1638111;85;26518;-62
2021/05/18 17:52:44;;;;;;;12.33;11.18;;;;;;;14.48;70.46;99299.94;1628553;85;25712;-63
2021/05/18 17:55:15;;;;;;;12.58;11.18;;;;;;;14.47;70.78;99294.30;1643092;85;25970;-63
2021/05/18 17:57:42;;;;;;;15.40;11.22;;;;;;;14.45;70.91;99303.95;1600090;86;29534;-62
2021/05/18 18:00:11;;;;;;;13.43;10.82;;;;;;;14.43;71.07;99309.75;1633114;85;25746;-62
2021/05/18 18:02:37;;;;;;;14.85;11.78;;;;;;;14.42;71.09;99306.84;1632483;85;25790;-61
2021/05/18 18:05:05;;;;;;;12.85;11.55;;;;;;;14.37;71.39;99303.83;1630020;86;26760;-61
2021/05/18 18:07:32;;;;;;;13.50;12.05;;;;;;;14.29;71.34;99305.41;1624542;86;26067;-62
2021/05/18 18:10:01;;;;;;;15.55;11.35;;;;;;;14.26;71.65;99309.61;1626681;85;27435;-62
2021/05/18 18:12:29;;;;;;;13.38;12.07;;;;;;;14.23;71.60;99308.95;1622244;86;25998;-61
2021/05/18 18:14:56;;;;;;;13.55;12.03;;;;;;;14.21;71.84;99308.53;1623576;85;26550;-62
2021/05/18 18:17:25;;;;;;;11.83;10.30;;;;;;;14.20;71.93;99301.54;1637019;85;27569;-62
2021/05/18 18:19:55;;;;;;;11.70;10.50;;;;;;;14.17;72.02;99310.41;1631693;85;25866;-61
2021/05/18 18:22:25;;;;;;;12.25;11.03;;;;;;;14.16;72.36;99315.03;1645199;85;27607;-62
2021/05/18 18:24:52;;;;;;;;;;;;;;;14.13;72.49;99316.33;1640552;85;26291;-62
2021/05/18 18:27:20;;;;;;;16.42;12.82;;;;;;;14.13;72.59;99317.68;1634827;85;25799;-62
2021/05/18 18:29:46;;;;;;;15.32;12.33;;;;;;;14.09;72.62;99323.05;1639923;86;25918;-59
2021/05/18 18:32:14;;;;;;;13.10;11.78;;;;;;;14.07;72.55;99326.70;1609363;86;25712;-59
2021/05/18 18:34:41;;;;;;;12.55;10.93;;;;;;;14.05;73.06;99324.14;1626929;85;28037;-59
2021/05/18 18:37:09;;;;;;;21.50;15.80;;;;;;;14.02;72.92;99331.06;1635137;86;25772;-60
2021/05/18 18:39:36;;;;;;;14.23;10.63;;;;;;;13.98;73.09;99329.63;1637031;85;25798;-59
2021/05/18 18:42:04;;;;;;;17.25;12.98;;;;;;;13.94;72.96;99326.60;1624542;86;25980;-60
2021/05/18 18:44:31;;;;;;;12.80;10.00;;;;;;;13.93;73.10;99331.84;1636369;85;25880;-60
2021/05/18 18:46:58;;;;;;;9.98;8.50;;;;;;;13.89;73.07;99328.23;1601015;86;27329;-60
2021/05/18 18:49:28;;;;;;;10.58;8.38;;;;;;;13.87;73.16;99338.69;1637179;85;26133;-58
2021/05/18 18:51:54;;;;;;;11.48;9.88;;;;;;;13.85;73.20;99339.61;1639283;85;25892;-60
2021/05/18 18:54:21;;;;;;;14.83;10.98;;;;;;;13.81;73.36;99337.59;1637775;85;26384;-60
2021/05/18 18:56:48;;;;;;;15.30;11.90;;;;;;;13.80;73.32;99347.46;1642489;85;25928;-59
2021/05/18 18:59:16;;;;;;;12.10;10.32;;;;;;;13.80;73.76;99350.95;1644960;85;27281;-60
2021/05/18 19:01:49;;;;;;;12.33;9.40;;;;;;;13.78;73.47;99355.97;1624663;86;26441;-59
2021/05/18 19:04:18;;;;;;;10.80;9.33;;;;;;;13.76;73.48;99354.18;1626989;86;26526;-58
2021/05/18 19:12:40;;;;;;;12.65;9.53;;;;;;;13.66;73.64;99343.06;1612126;86;27992;-60
2021/05/18 19:14:25;;;;;;;12.07;9.25;;;;;;;13.63;73.70;99349.98;1618267;86;26574;-59
2021/05/18 19:16:54;;;;;;;12.82;10.98;;;;;;;13.60;73.70;99350.68;1609132;86;25879;-59
2021/05/18 19:19:22;;;;;;;15.35;10.00;;;;;;;13.58;74.15;99357.05;1628097;86;26274;-62
2021/05/18 19:21:50;;;;;;;13.40;9.98;;;;;;;13.54;74.00;99356.18;1630733;85;25528;-61
2021/05/18 19:24:19;;;;;;;14.45;9.95;;;;;;;13.50;73.92;99357.45;1633078;86;27514;-62
2021/05/18 19:26:47;;;;;;;11.95;8.58;;;;;;;13.49;74.02;99354.51;1624716;85;25820;-62
2021/05/18 19:29:14;;;;;;;11.35;9.40;;;;;;;13.49;74.20;99363.23;1632968;85;25830;-60
2021/05/18 19:31:41;;;;;;;11.75;9.05;;;;;;;13.49;74.22;99361.88;1626746;85;25932;-61
2021/05/18 19:34:14;;;;;;;11.85;8.45;;;;;;;13.48;74.23;99359.71;1627463;86;25812;-61
2021/05/18 19:44:52;;;;;;;11.45;9.23;;;;;;;13.39;74.12;99363.97;1636065;85;25868;-62
2021/05/18 19:50:19;;;;;;;17.27;11.25;;;;;;;13.36;74.19;99369.31;1608323;87;27360;-62
2021/05/18 19:52:49;;;;;;;14.13;9.40;;;;;;;13.36;74.31;99379.59;1588721;87;25857;-58
2021/05/18 19:55:25;;;;;;;10.88;8.63;;;;;;;13.32;74.33;99369.23;1606888;87;25983;-59
2021/05/18 19:58:59;;;;;;;;;;;;;;;13.29;74.32;99374.54;1625895;86;25940;-59
2021/05/18 20:19:34;;;;;;;9.20;8.35;;;;;;;13.09;74.85;99379.84;1623248;87;27280;-59
2021/05/18 20:22:05;;;;;;;9.13;8.08;;;;;;;13.06;74.70;99379.98;1612383;86;25853;-59
2021/05/18 20:24:28;;;;;;;10.13;8.38;;;;;;;13.05;74.80;99385.18;1602813;86;25890;-60
2021/05/18 20:26:54;;;;;;;10.53;8.08;;;;;;;13.02;74.83;99383.16;1605855;86;25893;-58
2021/05/18 20:29:21;;;;;;;15.08;9.08;;;;;;;13.03;74.77;99385.32;1583798;88;27336;-59
2021/05/18 20:31:48;;;;;;;11.10;8.08;;;;;;;13.03;74.75;99384.74;1608404;87;26058;-59
2021/05/18 20:39:54;;;;;;;12.80;8.80;;;;;;;13.02;74.87;99390.52;1611547;86;25931;-59
2021/05/18 20:42:17;;;;;;;;;;;;;;;13.00;75.12;99397.65;1617916;87;27354;-60
2021/05/18 20:44:44;;;;;;;10.88;9.28;;;;;;;13.00;75.11;99398.22;1607165;87;26224;-60
2021/05/18 20:47:10;;;;;;;10.95;9.48;;;;;;;12.98;75.01;99405.36;1615561;86;25935;-59
2021/05/18 20:49:40;;;;;;;11.10;8.55;;;;;;;12.96;75.10;99403.56;1616905;86;25841;-59
2021/05/18 20:52:07;;;;;;;9.65;8.65;;;;;;;12.96;75.10;99413.64;1604889;86;25872;-60
2021/05/18 20:54:36;;;;;;;13.45;8.88;;;;;;;12.96;75.19;99414.42;1605701;86;28012;-62
2021/05/18 20:57:04;;;;;;;11.00;8.25;;;;;;;12.96;75.64;99418.48;1608786;87;25862;-62
2021/05/18 20:59:30;;;;;;;9.78;8.55;;;;;;;12.96;75.22;99410.92;1582150;87;26344;-62
2021/05/18 21:01:57;;;;;;;11.97;9.55;;;;;;;12.96;75.30;99417.13;1596834;87;27888;-62
2021/05/18 21:04:23;;;;;;;13.10;8.90;;;;;;;12.95;75.24;99418.83;1615682;86;25856;-62
2021/05/18 21:12:26;;;;;;;10.18;9.23;;;;;;;12.96;75.44;99423.92;1538369;90;25947;-62
2021/05/18 21:17:34;;;;;;;13.68;10.00;;;;;;;12.96;75.46;99429.92;1545228;90;25927;-62
2021/05/18 21:20:01;;;;;;;10.38;9.35;;;;;;;12.95;75.47;99420.97;1514198;92;27341;-61
2021/05/18 21:22:27;;;;;;;11.35;9.58;;;;;;;12.95;75.47;99417.48;1540887;90;25748;-62
2021/05/18 21:24:53;;;;;;;11.08;9.98;;;;;;;12.93;75.68;99424.60;1542046;91;26245;-62
2021/05/18 21:27:20;;;;;;;14.63;11.05;;;;;;;12.90;75.49;99432.08;1545795;90;25932;-62
2021/05/18 21:29:47;;;;;;;11.78;10.53;;;;;;;12.88;75.63;99427.56;1548188;90;25893;-62
2021/05/18 21:32:14;;;;;;;12.70;10.10;;;;;;;12.88;75.57;99430.28;1517313;92;27430;-60
2021/05/18 21:34:40;;;;;;;13.50;10.18;;;;;;;12.87;75.82;99428.14;1517633;91;25962;-65
2021/05/18 21:37:07;;;;;;;12.47;10.43;;;;;;;12.88;75.79;99435.70;1524414;91;25948;-64
2021/05/18 21:39:41;;;;;;;11.83;9.80;;;;;;;12.91;75.84;99438.31;1538806;90;25825;-63
2021/05/18 21:42:06;;;;;;;12.55;10.38;;;;;;;12.93;75.95;99436.81;1528710;91;25909;-63
2021/05/18 21:44:31;;;;;;;10.90;9.83;;;;;;;12.96;75.75;99434.00;1537085;90;28029;-63
2021/05/18 21:46:58;;;;;;;11.85;10.13;;;;;;;13.00;75.83;99434.30;1536782;90;25799;-63
2021/05/18 21:49:25;;;;;;;11.43;10.32;;;;;;;13.04;75.72;99429.77;1566215;87;25846;-63
2021/05/18 21:51:51;;;;;;;10.23;9.23;;;;;;;13.07;75.58;99435.84;1612144;87;26659;-64
2021/05/18 21:54:18;;;;;;;10.60;9.50;;;;;;;13.06;75.44;99435.64;1613439;86;25870;-63
2021/05/18 21:56:44;;;;;;;12.68;10.35;;;;;;;13.08;75.38;99427.14;1617841;87;27337;-64
2021/05/18 21:59:11;;;;;;;12.93;9.70;;;;;;;13.07;75.35;99430.98;1619539;87;25826;-63
2021/05/18 22:01:37;;;;;;;11.20;9.15;;;;;;;13.08;75.30;99434.72;1620878;87;26577;-63
2021/05/18 22:04:04;;;;;;;13.25;9.30;;;;;;;13.07;75.10;99432.34;1622985;87;25856;-61
2021/05/18 22:06:31;;;;;;;12.20;9.70;;;;;;;13.08;75.21;99440.72;1580364;88;25760;-62
2021/05/18 22:09:08;;;;;;;10.05;9.00;;;;;;;13.10;75.31;99436.30;1618196;87;27448;-61
2021/05/18 22:27:11;;;;;;;16.90;12.28;;;;;;;13.19;75.02;99449.93;1610735;87;25713;-62
2021/05/18 22:29:38;;;;;;;11.55;10.35;;;;;;;13.19;74.82;99450.50;1618227;87;25754;-61
